sensor_id;sensor_type;location;lat;lon;timestamp;P1;P2;P0
68713;PMS7003;55690;51.566;19.198;2024-01-11T00:02:41;40;26;15
68713;PMS7003;55690;51.566;19.198;2024-01-11T00:06:48;60;38;20
68713;PMS7003;55690;51.566;19.198;2024-01-11T00:10:54;38;10;1
68713;PMS7003;55690;51.566;19.198;2024-01-11T00:15:00;40;28;18
68713;PMS7003;55690;51.566;19.198;2024-01-11T00:19:06;41;26;16
68713;PMS7003;55690;51.566;19.198;2024-01-11T00:23:13;45;29;17
68713;PMS7003;55690;51.566;19.198;2024-01-11T00:27:19;52;36;21
68713;PMS7003;55690;51.566;19.198;2024-01-11T00:31:25;38;28;15
68713;PMS7003;55690;51.566;19.198;2024-01-11T00:35:31;63;34;18
68713;PMS7003;55690;51.566;19.198;2024-01-11T00:39:37;68;38;20
68713;PMS7003;55690;51.566;19.198;2024-01-11T00:43:43;39;30;16
68713;PMS7003;55690;51.566;19.198;2024-01-11T00:47:50;50;36;20
68713;PMS7003;55690;51.566;19.198;2024-01-11T00:51:56;41;26;16
68713;PMS7003;55690;51.566;19.198;2024-01-11T00:56:02;40;22;10
68713;PMS7003;55690;51.566;19.198;2024-01-11T01:00:09;36;25;15
68713;PMS7003;55690;51.566;19.198;2024-01-11T01:04:14;46;32;19
68713;PMS7003;55690;51.566;19.198;2024-01-11T01:08:21;52;37;22
68713;PMS7003;55690;51.566;19.198;2024-01-11T01:12:27;51;33;17
68713;PMS7003;55690;51.566;19.198;2024-01-11T01:16:33;48;34;19
68713;PMS7003;55690;51.566;19.198;2024-01-11T01:20:39;47;26;16
68713;PMS7003;55690;51.566;19.198;2024-01-11T01:24:46;54;25;15
68713;PMS7003;55690;51.566;19.198;2024-01-11T01:28:52;50;28;15
68713;PMS7003;55690;51.566;19.198;2024-01-11T01:32:58;62;29;14
68713;PMS7003;55690;51.566;19.198;2024-01-11T01:37:04;42;30;20
68713;PMS7003;55690;51.566;19.198;2024-01-11T01:41:10;50;33;18
68713;PMS7003;55690;51.566;19.198;2024-01-11T01:45:17;43;30;21
68713;PMS7003;55690;51.566;19.198;2024-01-11T01:49:23;41;30;16
68713;PMS7003;55690;51.566;19.198;2024-01-11T01:53:29;40;24;16
68713;PMS7003;55690;51.566;19.198;2024-01-11T01:57:35;47;33;18
68713;PMS7003;55690;51.566;19.198;2024-01-11T02:01:41;60;31;19
68713;PMS7003;55690;51.566;19.198;2024-01-11T02:05:48;61;36;19
68713;PMS7003;55690;51.566;19.198;2024-01-11T02:09:54;42;27;14
68713;PMS7003;55690;51.566;19.198;2024-01-11T02:14:00;48;31;7
68713;PMS7003;55690;51.566;19.198;2024-01-11T02:18:06;37;27;13
68713;PMS7003;55690;51.566;19.198;2024-01-11T02:22:14;39;30;17
68713;PMS7003;55690;51.566;19.198;2024-01-11T02:26:22;44;29;17
68713;PMS7003;55690;51.566;19.198;2024-01-11T02:30:25;52;37;19
68713;PMS7003;55690;51.566;19.198;2024-01-11T02:34:31;42;25;16
68713;PMS7003;55690;51.566;19.198;2024-01-11T02:38:37;43;31;17
68713;PMS7003;55690;51.566;19.198;2024-01-11T02:42:43;45;26;17
68713;PMS7003;55690;51.566;19.198;2024-01-11T02:46:50;6;0;0
68713;PMS7003;55690;51.566;19.198;2024-01-11T02:50:58;27;23;12
68713;PMS7003;55690;51.566;19.198;2024-01-11T02:55:02;47;29;17
68713;PMS7003;55690;51.566;19.198;2024-01-11T02:59:08;43;27;17
68713;PMS7003;55690;51.566;19.198;2024-01-11T03:03:14;33;26;14
68713;PMS7003;55690;51.566;19.198;2024-01-11T03:07:21;57;37;19
68713;PMS7003;55690;51.566;19.198;2024-01-11T03:11:27;37;23;8
68713;PMS7003;55690;51.566;19.198;2024-01-11T03:15:33;32;19;10
68713;PMS7003;55690;51.566;19.198;2024-01-11T03:19:39;33;26;17
68713;PMS7003;55690;51.566;19.198;2024-01-11T03:23:46;50;29;15
68713;PMS7003;55690;51.566;19.198;2024-01-11T03:27:52;43;32;15
68713;PMS7003;55690;51.566;19.198;2024-01-11T03:31:58;43;29;17
68713;PMS7003;55690;51.566;19.198;2024-01-11T03:40:12;47;26;14
68713;PMS7003;55690;51.566;19.198;2024-01-11T03:44:16;41;28;14
68713;PMS7003;55690;51.566;19.198;2024-01-11T03:48:23;31;20;15
68713;PMS7003;55690;51.566;19.198;2024-01-11T03:52:29;42;26;15
68713;PMS7003;55690;51.566;19.198;2024-01-11T03:56:39;28;22;12
68713;PMS7003;55690;51.566;19.198;2024-01-11T04:00:42;46;29;20
68713;PMS7003;55690;51.566;19.198;2024-01-11T04:04:48;48;28;16
68713;PMS7003;55690;51.566;19.198;2024-01-11T04:08:55;50;24;15
68713;PMS7003;55690;51.566;19.198;2024-01-11T04:13:01;35;21;13
68713;PMS7003;55690;51.566;19.198;2024-01-11T04:17:07;57;33;21
68713;PMS7003;55690;51.566;19.198;2024-01-11T04:25:24;52;27;15
68713;PMS7003;55690;51.566;19.198;2024-01-11T04:29:26;32;25;11
68713;PMS7003;55690;51.566;19.198;2024-01-11T04:33:32;37;24;16
68713;PMS7003;55690;51.566;19.198;2024-01-11T04:37:38;46;27;15
68713;PMS7003;55690;51.566;19.198;2024-01-11T04:41:44;43;23;13
68713;PMS7003;55690;51.566;19.198;2024-01-11T04:45:51;43;19;9
68713;PMS7003;55690;51.566;19.198;2024-01-11T04:49:57;46;31;14
68713;PMS7003;55690;51.566;19.198;2024-01-11T04:54:03;22;0;0
68713;PMS7003;55690;51.566;19.198;2024-01-11T04:58:09;30;20;14
68713;PMS7003;55690;51.566;19.198;2024-01-11T05:02:15;35;21;11
68713;PMS7003;55690;51.566;19.198;2024-01-11T05:06:22;42;24;12
68713;PMS7003;55690;51.566;19.198;2024-01-11T05:10:28;32;18;12
68713;PMS7003;55690;51.566;19.198;2024-01-11T05:14:34;29;13;3
68713;PMS7003;55690;51.566;19.198;2024-01-11T05:18:40;29;18;12
68713;PMS7003;55690;51.566;19.198;2024-01-11T05:22:46;45;31;19
68713;PMS7003;55690;51.566;19.198;2024-01-11T05:26:52;44;20;8
68713;PMS7003;55690;51.566;19.198;2024-01-11T05:30:59;36;22;15
68713;PMS7003;55690;51.566;19.198;2024-01-11T05:35:05;32;24;14
68713;PMS7003;55690;51.566;19.198;2024-01-11T05:39:11;25;17;10
68713;PMS7003;55690;51.566;19.198;2024-01-11T05:43:17;25;21;12
68713;PMS7003;55690;51.566;19.198;2024-01-11T05:47:23;32;15;12
68713;PMS7003;55690;51.566;19.198;2024-01-11T05:51:30;25;19;11
68713;PMS7003;55690;51.566;19.198;2024-01-11T05:55:36;34;22;13
68713;PMS7003;55690;51.566;19.198;2024-01-11T05:59:45;32;25;13
68713;PMS7003;55690;51.566;19.198;2024-01-11T06:03:48;37;26;13
68713;PMS7003;55690;51.566;19.198;2024-01-11T06:07:54;35;28;11
68713;PMS7003;55690;51.566;19.198;2024-01-11T06:12:01;44;21;12
68713;PMS7003;55690;51.566;19.198;2024-01-11T06:16:07;23;15;10
68713;PMS7003;55690;51.566;19.198;2024-01-11T06:20:13;27;18;11
68713;PMS7003;55690;51.566;19.198;2024-01-11T06:24:19;18;17;11
68713;PMS7003;55690;51.566;19.198;2024-01-11T06:28:25;23;18;9
68713;PMS7003;55690;51.566;19.198;2024-01-11T06:32:32;26;16;10
68713;PMS7003;55690;51.566;19.198;2024-01-11T06:36:38;34;16;9
68713;PMS7003;55690;51.566;19.198;2024-01-11T06:40:44;24;18;11
68713;PMS7003;55690;51.566;19.198;2024-01-11T06:44:50;38;14;7
68713;PMS7003;55690;51.566;19.198;2024-01-11T06:48:56;33;26;14
68713;PMS7003;55690;51.566;19.198;2024-01-11T06:53:03;21;15;10
68713;PMS7003;55690;51.566;19.198;2024-01-11T06:57:09;38;28;19
68713;PMS7003;55690;51.566;19.198;2024-01-11T07:01:15;26;16;8
68713;PMS7003;55690;51.566;19.198;2024-01-11T07:05:21;13;9;6
68713;PMS7003;55690;51.566;19.198;2024-01-11T07:09:28;41;22;11
68713;PMS7003;55690;51.566;19.198;2024-01-11T07:13:34;30;17;9
68713;PMS7003;55690;51.566;19.198;2024-01-11T07:17:40;33;19;11
68713;PMS7003;55690;51.566;19.198;2024-01-11T07:21:46;42;20;13
68713;PMS7003;55690;51.566;19.198;2024-01-11T07:25:52;28;17;8
68713;PMS7003;55690;51.566;19.198;2024-01-11T07:29:58;39;15;8
68713;PMS7003;55690;51.566;19.198;2024-01-11T07:34:05;24;15;10
68713;PMS7003;55690;51.566;19.198;2024-01-11T07:38:12;40;17;8
68713;PMS7003;55690;51.566;19.198;2024-01-11T07:42:18;17;12;10
68713;PMS7003;55690;51.566;19.198;2024-01-11T07:46:24;24;19;10
68713;PMS7003;55690;51.566;19.198;2024-01-11T07:50:30;18;7;1
68713;PMS7003;55690;51.566;19.198;2024-01-11T07:54:37;39;16;12
68713;PMS7003;55690;51.566;19.198;2024-01-11T07:58:43;35;15;5
68713;PMS7003;55690;51.566;19.198;2024-01-11T08:02:49;37;22;10
68713;PMS7003;55690;51.566;19.198;2024-01-11T08:06:55;33;8;1
68713;PMS7003;55690;51.566;19.198;2024-01-11T08:11:02;32;21;7
68713;PMS7003;55690;51.566;19.198;2024-01-11T08:15:08;31;25;10
68713;PMS7003;55690;51.566;19.198;2024-01-11T08:19:15;34;20;13
68713;PMS7003;55690;51.566;19.198;2024-01-11T08:23:20;26;12;7
68713;PMS7003;55690;51.566;19.198;2024-01-11T08:27:26;25;10;7
68713;PMS7003;55690;51.566;19.198;2024-01-11T08:31:33;33;24;13
68713;PMS7003;55690;51.566;19.198;2024-01-11T08:35:39;23;13;7
68713;PMS7003;55690;51.566;19.198;2024-01-11T08:39:45;17;14;8
68713;PMS7003;55690;51.566;19.198;2024-01-11T08:43:51;30;14;11
68713;PMS7003;55690;51.566;19.198;2024-01-11T08:47:57;32;21;14
68713;PMS7003;55690;51.566;19.198;2024-01-11T08:52:04;21;14;8
68713;PMS7003;55690;51.566;19.198;2024-01-11T08:56:10;25;15;9
68713;PMS7003;55690;51.566;19.198;2024-01-11T09:00:16;28;11;6
68713;PMS7003;55690;51.566;19.198;2024-01-11T09:04:22;13;8;3
68713;PMS7003;55690;51.566;19.198;2024-01-11T09:08:28;31;21;16
68713;PMS7003;55690;51.566;19.198;2024-01-11T09:12:35;7;4;0
68713;PMS7003;55690;51.566;19.198;2024-01-11T09:16:41;27;13;7
68713;PMS7003;55690;51.566;19.198;2024-01-11T09:20:47;16;10;8
68713;PMS7003;55690;51.566;19.198;2024-01-11T09:24:53;33;13;8
68713;PMS7003;55690;51.566;19.198;2024-01-11T09:28:59;29;16;11
68713;PMS7003;55690;51.566;19.198;2024-01-11T09:33:05;20;10;7
68713;PMS7003;55690;51.566;19.198;2024-01-11T09:41:05;11;11;9
68713;PMS7003;55690;51.566;19.198;2024-01-11T09:45:16;13;2;2
68713;PMS7003;55690;51.566;19.198;2024-01-11T09:49:18;32;10;9
68713;PMS7003;55690;51.566;19.198;2024-01-11T09:53:22;19;10;7
68713;PMS7003;55690;51.566;19.198;2024-01-11T09:57:31;12;5;3
68713;PMS7003;55690;51.566;19.198;2024-01-11T10:01:34;9;8;5
68713;PMS7003;55690;51.566;19.198;2024-01-11T10:05:40;15;10;6
68713;PMS7003;55690;51.566;19.198;2024-01-11T10:09:46;21;12;9
68713;PMS7003;55690;51.566;19.198;2024-01-11T10:13:56;9;4;3
68713;PMS7003;55690;51.566;19.198;2024-01-11T10:17:59;5;5;3
68713;PMS7003;55690;51.566;19.198;2024-01-11T10:22:05;10;5;4
68713;PMS7003;55690;51.566;19.198;2024-01-11T10:26:11;14;7;5
68713;PMS7003;55690;51.566;19.198;2024-01-11T10:30:17;15;8;4
68713;PMS7003;55690;51.566;19.198;2024-01-11T10:34:24;9;5;4
68713;PMS7003;55690;51.566;19.198;2024-01-11T10:38:30;18;6;4
68713;PMS7003;55690;51.566;19.198;2024-01-11T10:42:39;21;6;4
68713;PMS7003;55690;51.566;19.198;2024-01-11T10:46:50;11;8;4
68713;PMS7003;55690;51.566;19.198;2024-01-11T10:50:58;11;5;4
68713;PMS7003;55690;51.566;19.198;2024-01-11T10:55:03;16;6;4
68713;PMS7003;55690;51.566;19.198;2024-01-11T10:59:06;17;9;6
68713;PMS7003;55690;51.566;19.198;2024-01-11T11:03:08;16;7;6
68713;PMS7003;55690;51.566;19.198;2024-01-11T11:07:13;22;8;5
68713;PMS7003;55690;51.566;19.198;2024-01-11T11:11:19;9;7;4
68713;PMS7003;55690;51.566;19.198;2024-01-11T11:15:26;29;12;7
68713;PMS7003;55690;51.566;19.198;2024-01-11T11:19:32;15;11;7
68713;PMS7003;55690;51.566;19.198;2024-01-11T11:23:38;10;5;3
68713;PMS7003;55690;51.566;19.198;2024-01-11T11:27:44;9;5;3
68713;PMS7003;55690;51.566;19.198;2024-01-11T11:31:50;17;9;7
68713;PMS7003;55690;51.566;19.198;2024-01-11T11:35:57;9;7;4
68713;PMS7003;55690;51.566;19.198;2024-01-11T11:40:03;9;6;4
68713;PMS7003;55690;51.566;19.198;2024-01-11T11:44:11;11;8;6
68713;PMS7003;55690;51.566;19.198;2024-01-11T11:52:28;15;8;6
68713;PMS7003;55690;51.566;19.198;2024-01-11T11:56:31;16;6;5
68713;PMS7003;55690;51.566;19.198;2024-01-11T12:00:34;16;4;3
68713;PMS7003;55690;51.566;19.198;2024-01-11T12:04:40;14;10;7
68713;PMS7003;55690;51.566;19.198;2024-01-11T12:08:47;23;15;10
68713;PMS7003;55690;51.566;19.198;2024-01-11T12:12:52;15;13;8
68713;PMS7003;55690;51.566;19.198;2024-01-11T12:16:58;9;7;4
68713;PMS7003;55690;51.566;19.198;2024-01-11T12:21:05;17;9;6
68713;PMS7003;55690;51.566;19.198;2024-01-11T12:25:11;20;9;6
68713;PMS7003;55690;51.566;19.198;2024-01-11T12:29:17;18;6;5
68713;PMS7003;55690;51.566;19.198;2024-01-11T12:33:23;9;6;4
68713;PMS7003;55690;51.566;19.198;2024-01-11T12:37:30;16;4;3
68713;PMS7003;55690;51.566;19.198;2024-01-11T12:41:36;10;6;5
68713;PMS7003;55690;51.566;19.198;2024-01-11T12:45:42;11;5;3
68713;PMS7003;55690;51.566;19.198;2024-01-11T12:49:48;17;6;4
68713;PMS7003;55690;51.566;19.198;2024-01-11T12:53:54;10;9;7
68713;PMS7003;55690;51.566;19.198;2024-01-11T13:02:10;5;4;3
68713;PMS7003;55690;51.566;19.198;2024-01-11T13:06:15;14;9;4
68713;PMS7003;55690;51.566;19.198;2024-01-11T13:10:19;12;6;5
68713;PMS7003;55690;51.566;19.198;2024-01-11T13:14:25;6;6;4
68713;PMS7003;55690;51.566;19.198;2024-01-11T13:18:34;12;5;4
68713;PMS7003;55690;51.566;19.198;2024-01-11T13:22:38;5;4;3
68713;PMS7003;55690;51.566;19.198;2024-01-11T13:26:44;7;5;3
68713;PMS7003;55690;51.566;19.198;2024-01-11T13:30:50;14;4;3
68713;PMS7003;55690;51.566;19.198;2024-01-11T13:34:56;25;11;5
68713;PMS7003;55690;51.566;19.198;2024-01-11T13:39:02;21;10;6
68713;PMS7003;55690;51.566;19.198;2024-01-11T13:43:09;14;7;5
68713;PMS7003;55690;51.566;19.198;2024-01-11T13:47:15;11;10;6
68713;PMS7003;55690;51.566;19.198;2024-01-11T13:51:21;14;10;6
68713;PMS7003;55690;51.566;19.198;2024-01-11T13:55:27;8;5;4
68713;PMS7003;55690;51.566;19.198;2024-01-11T13:59:35;9;7;4
68713;PMS7003;55690;51.566;19.198;2024-01-11T14:03:39;12;10;7
68713;PMS7003;55690;51.566;19.198;2024-01-11T14:07:46;13;9;5
68713;PMS7003;55690;51.566;19.198;2024-01-11T14:11:52;10;5;3
68713;PMS7003;55690;51.566;19.198;2024-01-11T14:15:58;9;7;3
68713;PMS7003;55690;51.566;19.198;2024-01-11T14:20:04;10;10;5
68713;PMS7003;55690;51.566;19.198;2024-01-11T14:24:15;9;9;8
68713;PMS7003;55690;51.566;19.198;2024-01-11T14:28:17;14;9;5
68713;PMS7003;55690;51.566;19.198;2024-01-11T14:32:24;18;9;7
68713;PMS7003;55690;51.566;19.198;2024-01-11T14:36:29;8;6;4
68713;PMS7003;55690;51.566;19.198;2024-01-11T14:40:35;10;4;4
68713;PMS7003;55690;51.566;19.198;2024-01-11T14:44:41;12;7;3
68713;PMS7003;55690;51.566;19.198;2024-01-11T14:48:48;9;4;3
68713;PMS7003;55690;51.566;19.198;2024-01-11T14:52:54;13;8;5
68713;PMS7003;55690;51.566;19.198;2024-01-11T14:57:00;3;2;2
68713;PMS7003;55690;51.566;19.198;2024-01-11T15:01:06;15;6;4
68713;PMS7003;55690;51.566;19.198;2024-01-11T15:05:12;10;6;4
68713;PMS7003;55690;51.566;19.198;2024-01-11T15:09:19;17;5;4
68713;PMS7003;55690;51.566;19.198;2024-01-11T15:13:25;10;5;3
68713;PMS7003;55690;51.566;19.198;2024-01-11T15:17:31;12;4;2
68713;PMS7003;55690;51.566;19.198;2024-01-11T15:21:40;7;5;5
68713;PMS7003;55690;51.566;19.198;2024-01-11T15:25:43;9;9;5
68713;PMS7003;55690;51.566;19.198;2024-01-11T15:29:49;10;3;1
68713;PMS7003;55690;51.566;19.198;2024-01-11T15:33:56;11;6;5
68713;PMS7003;55690;51.566;19.198;2024-01-11T15:38:02;8;6;4
68713;PMS7003;55690;51.566;19.198;2024-01-11T15:42:08;10;6;5
68713;PMS7003;55690;51.566;19.198;2024-01-11T15:46:14;6;4;3
68713;PMS7003;55690;51.566;19.198;2024-01-11T15:50:20;9;9;4
68713;PMS7003;55690;51.566;19.198;2024-01-11T15:54:27;6;6;3
68713;PMS7003;55690;51.566;19.198;2024-01-11T15:58:33;8;8;4
68713;PMS7003;55690;51.566;19.198;2024-01-11T16:02:39;5;2;1
68713;PMS7003;55690;51.566;19.198;2024-01-11T16:06:45;15;2;1
68713;PMS7003;55690;51.566;19.198;2024-01-11T16:10:51;12;4;3
68713;PMS7003;55690;51.566;19.198;2024-01-11T16:14:59;5;4;3
68713;PMS7003;55690;51.566;19.198;2024-01-11T16:19:04;0;0;0
68713;PMS7003;55690;51.566;19.198;2024-01-11T16:23:10;11;5;3
68713;PMS7003;55690;51.566;19.198;2024-01-11T16:27:16;5;2;2
68713;PMS7003;55690;51.566;19.198;2024-01-11T16:31:22;6;6;4
68713;PMS7003;55690;51.566;19.198;2024-01-11T16:35:29;10;4;3
68713;PMS7003;55690;51.566;19.198;2024-01-11T16:39:39;7;3;2
68713;PMS7003;55690;51.566;19.198;2024-01-11T16:43:43;13;6;2
68713;PMS7003;55690;51.566;19.198;2024-01-11T16:47:47;5;4;1
68713;PMS7003;55690;51.566;19.198;2024-01-11T16:51:53;1;1;1
68713;PMS7003;55690;51.566;19.198;2024-01-11T16:55:59;9;4;3
68713;PMS7003;55690;51.566;19.198;2024-01-11T17:00:06;10;8;6
68713;PMS7003;55690;51.566;19.198;2024-01-11T17:04:12;9;7;5
68713;PMS7003;55690;51.566;19.198;2024-01-11T17:08:18;7;6;4
68713;PMS7003;55690;51.566;19.198;2024-01-11T17:12:24;7;4;2
68713;PMS7003;55690;51.566;19.198;2024-01-11T17:16:31;6;4;4
68713;PMS7003;55690;51.566;19.198;2024-01-11T17:20:37;9;5;4
68713;PMS7003;55690;51.566;19.198;2024-01-11T17:24:43;14;5;2
68713;PMS7003;55690;51.566;19.198;2024-01-11T17:28:49;9;3;2
68713;PMS7003;55690;51.566;19.198;2024-01-11T17:32:55;6;5;4
68713;PMS7003;55690;51.566;19.198;2024-01-11T17:37:01;5;4;4
68713;PMS7003;55690;51.566;19.198;2024-01-11T17:41:08;4;4;2
68713;PMS7003;55690;51.566;19.198;2024-01-11T17:45:14;11;6;5
68713;PMS7003;55690;51.566;19.198;2024-01-11T17:49:20;21;9;6
68713;PMS7003;55690;51.566;19.198;2024-01-11T17:53:26;6;3;3
68713;PMS7003;55690;51.566;19.198;2024-01-11T17:57:32;16;11;6
68713;PMS7003;55690;51.566;19.198;2024-01-11T18:01:39;10;8;4
68713;PMS7003;55690;51.566;19.198;2024-01-11T18:05:45;13;10;6
68713;PMS7003;55690;51.566;19.198;2024-01-11T18:09:51;7;4;4
68713;PMS7003;55690;51.566;19.198;2024-01-11T18:13:57;7;7;5
68713;PMS7003;55690;51.566;19.198;2024-01-11T18:18:04;12;11;6
68713;PMS7003;55690;51.566;19.198;2024-01-11T18:22:10;14;10;6
68713;PMS7003;55690;51.566;19.198;2024-01-11T18:26:16;18;2;1
68713;PMS7003;55690;51.566;19.198;2024-01-11T18:30:22;8;8;6
68713;PMS7003;55690;51.566;19.198;2024-01-11T18:34:28;9;5;3
68713;PMS7003;55690;51.566;19.198;2024-01-11T18:38:34;6;4;2
68713;PMS7003;55690;51.566;19.198;2024-01-11T18:42:40;10;4;3
68713;PMS7003;55690;51.566;19.198;2024-01-11T18:46:47;10;8;4
68713;PMS7003;55690;51.566;19.198;2024-01-11T18:50:53;12;5;3
68713;PMS7003;55690;51.566;19.198;2024-01-11T18:54:59;3;3;3
68713;PMS7003;55690;51.566;19.198;2024-01-11T18:59:05;12;8;5
68713;PMS7003;55690;51.566;19.198;2024-01-11T19:03:11;13;10;5
68713;PMS7003;55690;51.566;19.198;2024-01-11T19:07:18;17;12;7
68713;PMS7003;55690;51.566;19.198;2024-01-11T19:11:24;15;8;4
68713;PMS7003;55690;51.566;19.198;2024-01-11T19:15:30;7;6;5
68713;PMS7003;55690;51.566;19.198;2024-01-11T19:19:36;18;8;5
68713;PMS7003;55690;51.566;19.198;2024-01-11T19:23:42;9;7;5
68713;PMS7003;55690;51.566;19.198;2024-01-11T19:27:49;10;6;5
68713;PMS7003;55690;51.566;19.198;2024-01-11T19:31:55;13;8;6
68713;PMS7003;55690;51.566;19.198;2024-01-11T19:36:01;10;6;5
68713;PMS7003;55690;51.566;19.198;2024-01-11T19:40:07;9;6;3
68713;PMS7003;55690;51.566;19.198;2024-01-11T19:44:13;9;4;2
68713;PMS7003;55690;51.566;19.198;2024-01-11T19:48:20;15;6;4
68713;PMS7003;55690;51.566;19.198;2024-01-11T19:52:26;7;7;4
68713;PMS7003;55690;51.566;19.198;2024-01-11T19:56:32;10;8;4
68713;PMS7003;55690;51.566;19.198;2024-01-11T20:00:38;6;5;4
68713;PMS7003;55690;51.566;19.198;2024-01-11T20:04:44;9;7;6
68713;PMS7003;55690;51.566;19.198;2024-01-11T20:08:50;8;6;4
68713;PMS7003;55690;51.566;19.198;2024-01-11T20:12:57;13;11;9
68713;PMS7003;55690;51.566;19.198;2024-01-11T20:17:03;15;8;4
68713;PMS7003;55690;51.566;19.198;2024-01-11T20:21:09;22;8;6
68713;PMS7003;55690;51.566;19.198;2024-01-11T20:25:15;21;11;6
68713;PMS7003;55690;51.566;19.198;2024-01-11T20:29:21;17;12;8
68713;PMS7003;55690;51.566;19.198;2024-01-11T20:33:28;9;8;5
68713;PMS7003;55690;51.566;19.198;2024-01-11T20:37:34;10;6;5
68713;PMS7003;55690;51.566;19.198;2024-01-11T20:41:40;17;10;7
68713;PMS7003;55690;51.566;19.198;2024-01-11T20:45:46;17;9;5
68713;PMS7003;55690;51.566;19.198;2024-01-11T20:49:52;13;5;3
68713;PMS7003;55690;51.566;19.198;2024-01-11T20:54:00;15;11;4
68713;PMS7003;55690;51.566;19.198;2024-01-11T20:58:07;13;10;6
68713;PMS7003;55690;51.566;19.198;2024-01-11T21:02:11;3;3;3
68713;PMS7003;55690;51.566;19.198;2024-01-11T21:06:17;17;11;5
68713;PMS7003;55690;51.566;19.198;2024-01-11T21:10:23;19;7;5
68713;PMS7003;55690;51.566;19.198;2024-01-11T21:14:29;10;5;3
68713;PMS7003;55690;51.566;19.198;2024-01-11T21:18:36;4;4;4
68713;PMS7003;55690;51.566;19.198;2024-01-11T21:22:42;5;5;0
68713;PMS7003;55690;51.566;19.198;2024-01-11T21:26:48;13;7;5
68713;PMS7003;55690;51.566;19.198;2024-01-11T21:30:54;7;4;3
68713;PMS7003;55690;51.566;19.198;2024-01-11T21:35:00;16;4;2
68713;PMS7003;55690;51.566;19.198;2024-01-11T21:39:07;19;7;5
68713;PMS7003;55690;51.566;19.198;2024-01-11T21:43:13;12;8;6
68713;PMS7003;55690;51.566;19.198;2024-01-11T21:47:19;15;9;6
68713;PMS7003;55690;51.566;19.198;2024-01-11T21:51:25;9;9;7
68713;PMS7003;55690;51.566;19.198;2024-01-11T21:55:31;11;5;4
68713;PMS7003;55690;51.566;19.198;2024-01-11T21:59:38;15;7;5
68713;PMS7003;55690;51.566;19.198;2024-01-11T22:03:44;6;6;4
68713;PMS7003;55690;51.566;19.198;2024-01-11T22:07:50;4;4;3
68713;PMS7003;55690;51.566;19.198;2024-01-11T22:11:56;4;4;3
68713;PMS7003;55690;51.566;19.198;2024-01-11T22:16:02;5;5;4
68713;PMS7003;55690;51.566;19.198;2024-01-11T22:20:09;6;6;4
68713;PMS7003;55690;51.566;19.198;2024-01-11T22:24:15;11;4;2
68713;PMS7003;55690;51.566;19.198;2024-01-11T22:28:21;6;4;2
68713;PMS7003;55690;51.566;19.198;2024-01-11T22:32:27;8;4;2
68713;PMS7003;55690;51.566;19.198;2024-01-11T22:36:33;8;3;2
68713;PMS7003;55690;51.566;19.198;2024-01-11T22:40:39;5;5;4
68713;PMS7003;55690;51.566;19.198;2024-01-11T22:44:46;22;9;7
68713;PMS7003;55690;51.566;19.198;2024-01-11T22:48:52;13;5;4
68713;PMS7003;55690;51.566;19.198;2024-01-11T22:52:58;12;6;4
68713;PMS7003;55690;51.566;19.198;2024-01-11T22:57:04;12;6;3
68713;PMS7003;55690;51.566;19.198;2024-01-11T23:01:10;9;9;6
68713;PMS7003;55690;51.566;19.198;2024-01-11T23:05:17;6;5;4
68713;PMS7003;55690;51.566;19.198;2024-01-11T23:09:23;7;4;4
68713;PMS7003;55690;51.566;19.198;2024-01-11T23:13:29;2;2;1
68713;PMS7003;55690;51.566;19.198;2024-01-11T23:17:35;8;4;3
68713;PMS7003;55690;51.566;19.198;2024-01-11T23:21:41;10;5;4
68713;PMS7003;55690;51.566;19.198;2024-01-11T23:25:48;3;3;3
68713;PMS7003;55690;51.566;19.198;2024-01-11T23:29:54;9;6;4
68713;PMS7003;55690;51.566;19.198;2024-01-11T23:34:00;8;6;4
68713;PMS7003;55690;51.566;19.198;2024-01-11T23:38:06;16;4;3
68713;PMS7003;55690;51.566;19.198;2024-01-11T23:42:12;4;4;3
68713;PMS7003;55690;51.566;19.198;2024-01-11T23:46:18;3;3;1
68713;PMS7003;55690;51.566;19.198;2024-01-11T23:50:25;6;6;4
68713;PMS7003;55690;51.566;19.198;2024-01-11T23:54:31;11;10;6
68713;PMS7003;55690;51.566;19.198;2024-01-11T23:58:37;23;5;3
